sensor_id;sensor_type;location;lat;lon;timestamp;pressure;altitude;pressure_sealevel;temperature;humidity
61292;BME280;47165;42.664;23.368;2023-06-14T00:00:10;94727.41;;;19.19;76.69
61292;BME280;47165;42.664;23.368;2023-06-14T00:02:38;94736.31;;;18.90;79.30
61292;BME280;47165;42.664;23.368;2023-06-14T00:05:04;94732.56;;;19.20;78.22
61292;BME280;47165;42.664;23.368;2023-06-14T00:07:35;94729.66;;;19.41;77.18
61292;BME280;47165;42.664;23.368;2023-06-14T00:10:02;94731.03;;;19.45;77.21
61292;BME280;47165;42.664;23.368;2023-06-14T00:12:27;94725.09;;;19.34;77.00
61292;BME280;47165;42.664;23.368;2023-06-14T00:14:53;94711.28;;;19.40;76.75
61292;BME280;47165;42.664;23.368;2023-06-14T00:17:18;94717.34;;;19.50;76.97
61292;BME280;47165;42.664;23.368;2023-06-14T00:19:43;94717.59;;;19.57;76.30
61292;BME280;47165;42.664;23.368;2023-06-14T00:22:09;94717.00;;;19.63;76.17
61292;BME280;47165;42.664;23.368;2023-06-14T00:27:57;94716.41;;;19.69;75.81
61292;BME280;47165;42.664;23.368;2023-06-14T00:30:23;94712.75;;;19.70;75.14
61292;BME280;47165;42.664;23.368;2023-06-14T00:32:48;94704.94;;;19.68;76.87
61292;BME280;47165;42.664;23.368;2023-06-14T00:35:15;94711.50;;;19.74;76.65
61292;BME280;47165;42.664;23.368;2023-06-14T00:37:41;94712.19;;;19.76;76.41
61292;BME280;47165;42.664;23.368;2023-06-14T00:40:07;94708.56;;;19.77;75.76
61292;BME280;47165;42.664;23.368;2023-06-14T00:42:33;94706.88;;;19.76;76.44
61292;BME280;47165;42.664;23.368;2023-06-14T00:44:59;94703.56;;;19.74;76.24
61292;BME280;47165;42.664;23.368;2023-06-14T00:47:24;94698.13;;;19.76;75.68
61292;BME280;47165;42.664;23.368;2023-06-14T00:49:50;94692.97;;;19.74;75.53
61292;BME280;47165;42.664;23.368;2023-06-14T00:52:17;94700.16;;;19.82;76.13
61292;BME280;47165;42.664;23.368;2023-06-14T00:54:44;94696.50;;;19.83;75.75
61292;BME280;47165;42.664;23.368;2023-06-14T00:57:10;94696.00;;;19.79;76.10
61292;BME280;47165;42.664;23.368;2023-06-14T00:59:46;94692.91;;;19.84;75.15
61292;BME280;47165;42.664;23.368;2023-06-14T01:02:13;94693.19;;;19.81;75.20
61292;BME280;47165;42.664;23.368;2023-06-14T01:04:40;94695.69;;;19.82;75.56
61292;BME280;47165;42.664;23.368;2023-06-14T01:08:05;94700.69;;;19.85;75.32
61292;BME280;47165;42.664;23.368;2023-06-14T01:13:25;94700.69;;;19.85;75.08
61292;BME280;47165;42.664;23.368;2023-06-14T01:15:54;94702.81;;;19.82;76.23
61292;BME280;47165;42.664;23.368;2023-06-14T01:18:22;94692.66;;;19.77;76.70
61292;BME280;47165;42.664;23.368;2023-06-14T01:20:51;94696.00;;;19.79;76.81
61292;BME280;47165;42.664;23.368;2023-06-14T01:23:19;94687.38;;;19.77;77.24
61292;BME280;47165;42.664;23.368;2023-06-14T01:25:45;94699.34;;;19.81;77.83
61292;BME280;47165;42.664;23.368;2023-06-14T01:28:13;94697.97;;;19.77;77.08
61292;BME280;47165;42.664;23.368;2023-06-14T01:30:42;94698.34;;;19.82;75.89
61292;BME280;47165;42.664;23.368;2023-06-14T01:33:12;94694.72;;;19.83;77.36
61292;BME280;47165;42.664;23.368;2023-06-14T01:35:39;94695.53;;;19.84;76.93
61292;BME280;47165;42.664;23.368;2023-06-14T01:38:06;94698.34;;;19.82;76.97
61292;BME280;47165;42.664;23.368;2023-06-14T01:40:33;94688.28;;;19.86;76.12
61292;BME280;47165;42.664;23.368;2023-06-14T01:43:00;94679.09;;;19.80;76.09
61292;BME280;47165;42.664;23.368;2023-06-14T01:45:27;94693.19;;;19.81;76.31
61292;BME280;47165;42.664;23.368;2023-06-14T01:47:53;94693.50;;;19.78;76.28
61292;BME280;47165;42.664;23.368;2023-06-14T01:50:20;94689.78;;;19.70;75.99
61292;BME280;47165;42.664;23.368;2023-06-14T01:52:45;94691.31;;;19.73;76.50
61292;BME280;47165;42.664;23.368;2023-06-14T01:55:11;94692.97;;;19.74;76.70
61292;BME280;47165;42.664;23.368;2023-06-14T01:57:36;94694.63;;;19.75;76.48
61292;BME280;47165;42.664;23.368;2023-06-14T02:00:03;94697.72;;;19.70;76.20
61292;BME280;47165;42.664;23.368;2023-06-14T02:02:29;94700.50;;;19.69;77.14
61292;BME280;47165;42.664;23.368;2023-06-14T02:04:54;94703.97;;;19.69;77.09
61292;BME280;47165;42.664;23.368;2023-06-14T02:07:22;94703.59;;;19.64;76.61
61292;BME280;47165;42.664;23.368;2023-06-14T02:09:48;94706.91;;;19.66;75.78
61292;BME280;47165;42.664;23.368;2023-06-14T02:12:13;94705.94;;;19.67;75.44
61292;BME280;47165;42.664;23.368;2023-06-14T02:14:39;94717.50;;;19.66;75.51
61292;BME280;47165;42.664;23.368;2023-06-14T02:17:04;94713.06;;;19.67;75.47
61292;BME280;47165;42.664;23.368;2023-06-14T02:19:31;94722.81;;;19.66;75.24
61292;BME280;47165;42.664;23.368;2023-06-14T02:21:57;94713.34;;;19.64;75.74
61292;BME280;47165;42.664;23.368;2023-06-14T02:24:22;94726.91;;;19.61;75.79
61292;BME280;47165;42.664;23.368;2023-06-14T02:26:49;94722.31;;;19.63;76.33
61292;BME280;47165;42.664;23.368;2023-06-14T02:29:14;94721.44;;;19.62;75.87
61292;BME280;47165;42.664;23.368;2023-06-14T02:31:40;94727.59;;;19.63;75.44
61292;BME280;47165;42.664;23.368;2023-06-14T02:34:06;94735.13;;;19.58;75.50
61292;BME280;47165;42.664;23.368;2023-06-14T02:36:34;94728.47;;;19.54;75.60
61292;BME280;47165;42.664;23.368;2023-06-14T02:38:59;94732.13;;;19.53;75.47
61292;BME280;47165;42.664;23.368;2023-06-14T02:41:25;94731.03;;;19.45;75.36
61292;BME280;47165;42.664;23.368;2023-06-14T02:43:51;94722.94;;;19.47;75.52
61292;BME280;47165;42.664;23.368;2023-06-14T02:46:17;94722.41;;;19.43;75.10
61292;BME280;47165;42.664;23.368;2023-06-14T02:48:43;94727.69;;;19.43;75.49
61292;BME280;47165;42.664;23.368;2023-06-14T02:51:08;94731.03;;;19.45;75.14
61292;BME280;47165;42.664;23.368;2023-06-14T02:53:35;94729.13;;;19.38;75.41
61292;BME280;47165;42.664;23.368;2023-06-14T02:56:01;94728.59;;;19.34;76.49
61292;BME280;47165;42.664;23.368;2023-06-14T02:58:26;94728.59;;;19.34;75.26
61292;BME280;47165;42.664;23.368;2023-06-14T03:00:52;94727.22;;;19.30;76.12
61292;BME280;47165;42.664;23.368;2023-06-14T03:03:20;94731.25;;;19.34;76.33
61292;BME280;47165;42.664;23.368;2023-06-14T03:05:47;94737.06;;;19.38;76.17
61292;BME280;47165;42.664;23.368;2023-06-14T03:08:15;94736.09;;;19.39;75.72
61292;BME280;47165;42.664;23.368;2023-06-14T03:10:45;94741.66;;;19.36;75.49
61292;BME280;47165;42.664;23.368;2023-06-14T03:13:11;94737.22;;;19.36;75.90
61292;BME280;47165;42.664;23.368;2023-06-14T03:15:37;94741.16;;;19.32;75.97
61292;BME280;47165;42.664;23.368;2023-06-14T03:18:03;94739.47;;;19.31;76.21
61292;BME280;47165;42.664;23.368;2023-06-14T03:20:29;94735.44;;;19.27;75.56
61292;BME280;47165;42.664;23.368;2023-06-14T03:22:55;94744.06;;;19.29;76.13
61292;BME280;47165;42.664;23.368;2023-06-14T03:25:20;94747.41;;;19.31;75.64
61292;BME280;47165;42.664;23.368;2023-06-14T03:27:47;94744.78;;;19.31;76.68
61292;BME280;47165;42.664;23.368;2023-06-14T03:30:13;94737.81;;;19.30;75.95
61292;BME280;47165;42.664;23.368;2023-06-14T03:32:38;94744.91;;;19.29;75.85
61292;BME280;47165;42.664;23.368;2023-06-14T03:35:04;94740.47;;;19.30;75.55
61292;BME280;47165;42.664;23.368;2023-06-14T03:37:30;94743.13;;;19.30;76.26
61292;BME280;47165;42.664;23.368;2023-06-14T03:39:55;94743.13;;;19.30;76.03
61292;BME280;47165;42.664;23.368;2023-06-14T03:42:21;94743.94;;;19.30;76.25
61292;BME280;47165;42.664;23.368;2023-06-14T03:44:46;94745.59;;;19.32;76.04
61292;BME280;47165;42.664;23.368;2023-06-14T03:47:12;94756.44;;;19.38;75.12
61292;BME280;47165;42.664;23.368;2023-06-14T03:49:37;94749.34;;;19.39;74.87
61292;BME280;47165;42.664;23.368;2023-06-14T03:52:03;94748.94;;;19.34;75.59
61292;BME280;47165;42.664;23.368;2023-06-14T03:54:29;94751.28;;;19.37;75.71
61292;BME280;47165;42.664;23.368;2023-06-14T03:56:54;94748.78;;;19.35;75.43
61292;BME280;47165;42.664;23.368;2023-06-14T03:59:22;94759.25;;;19.37;75.53
61292;BME280;47165;42.664;23.368;2023-06-14T04:01:47;94761.75;;;19.38;75.70
61292;BME280;47165;42.664;23.368;2023-06-14T04:04:14;94757.81;;;19.42;75.45
61292;BME280;47165;42.664;23.368;2023-06-14T04:06:41;94760.16;;;19.45;75.70
61292;BME280;47165;42.664;23.368;2023-06-14T04:09:08;94760.47;;;19.42;74.92
61292;BME280;47165;42.664;23.368;2023-06-14T04:11:33;94761.00;;;19.46;74.97
61292;BME280;47165;42.664;23.368;2023-06-14T04:13:59;94766.16;;;19.47;74.52
61292;BME280;47165;42.664;23.368;2023-06-14T04:16:24;94765.00;;;19.50;74.27
61292;BME280;47165;42.664;23.368;2023-06-14T04:18:50;94757.06;;;19.50;75.04
61292;BME280;47165;42.664;23.368;2023-06-14T04:21:18;94760.25;;;19.54;74.82
61292;BME280;47165;42.664;23.368;2023-06-14T04:23:43;94758.97;;;19.58;74.94
61292;BME280;47165;42.664;23.368;2023-06-14T04:26:09;94760.66;;;19.59;75.23
61292;BME280;47165;42.664;23.368;2023-06-14T04:28:36;94769.66;;;19.66;75.27
61292;BME280;47165;42.664;23.368;2023-06-14T04:31:06;94772.31;;;19.66;75.29
61292;BME280;47165;42.664;23.368;2023-06-14T04:33:36;94765.72;;;19.70;74.44
61292;BME280;47165;42.664;23.368;2023-06-14T04:36:09;94755.72;;;19.64;74.25
61292;BME280;47165;42.664;23.368;2023-06-14T04:38:37;94770.34;;;19.68;74.25
61292;BME280;47165;42.664;23.368;2023-06-14T04:41:02;94757.78;;;19.70;73.81
61292;BME280;47165;42.664;23.368;2023-06-14T04:43:28;94772.16;;;19.77;73.37
61292;BME280;47165;42.664;23.368;2023-06-14T04:45:53;94762.97;;;19.72;72.82
61292;BME280;47165;42.664;23.368;2023-06-14T04:48:21;94767.44;;;19.71;72.64
61292;BME280;47165;42.664;23.368;2023-06-14T04:50:47;94765.16;;;19.76;72.56
61292;BME280;47165;42.664;23.368;2023-06-14T04:53:13;94767.22;;;19.82;72.38
61292;BME280;47165;42.664;23.368;2023-06-14T04:55:38;94776.00;;;19.83;72.98
61292;BME280;47165;42.664;23.368;2023-06-14T04:58:04;94780.00;;;19.87;72.96
61292;BME280;47165;42.664;23.368;2023-06-14T05:00:30;94772.59;;;19.90;72.96
61292;BME280;47165;42.664;23.368;2023-06-14T05:02:55;94776.34;;;19.98;72.89
61292;BME280;47165;42.664;23.368;2023-06-14T05:05:22;94780.34;;;20.02;74.03
61292;BME280;47165;42.664;23.368;2023-06-14T05:07:48;94775.56;;;20.05;73.98
61292;BME280;47165;42.664;23.368;2023-06-14T05:10:14;94787.25;;;20.13;73.77
61292;BME280;47165;42.664;23.368;2023-06-14T05:12:39;94784.81;;;20.19;73.38
61292;BME280;47165;42.664;23.368;2023-06-14T05:15:05;94779.22;;;20.22;73.19
61292;BME280;47165;42.664;23.368;2023-06-14T05:17:30;94783.22;;;20.26;72.75
61292;BME280;47165;42.664;23.368;2023-06-14T05:19:56;94783.44;;;20.33;72.81
61292;BME280;47165;42.664;23.368;2023-06-14T05:22:22;94774.34;;;20.36;73.42
61292;BME280;47165;42.664;23.368;2023-06-14T05:24:47;94782.38;;;20.44;72.27
61292;BME280;47165;42.664;23.368;2023-06-14T05:27:13;94788.06;;;20.49;71.96
61292;BME280;47165;42.664;23.368;2023-06-14T05:29:39;94793.06;;;20.52;71.48
61292;BME280;47165;42.664;23.368;2023-06-14T05:32:05;94792.47;;;20.58;70.40
61292;BME280;47165;42.664;23.368;2023-06-14T05:34:31;94803.06;;;20.58;70.40
61292;BME280;47165;42.664;23.368;2023-06-14T05:36:56;94804.75;;;20.59;69.48
61292;BME280;47165;42.664;23.368;2023-06-14T05:39:22;94806.13;;;20.63;69.31
61292;BME280;47165;42.664;23.368;2023-06-14T05:41:49;94790.34;;;20.62;69.34
61292;BME280;47165;42.664;23.368;2023-06-14T05:44:14;94796.53;;;20.70;69.79
61292;BME280;47165;42.664;23.368;2023-06-14T05:46:40;94797.44;;;20.79;71.03
61292;BME280;47165;42.664;23.368;2023-06-14T05:49:06;94806.44;;;20.86;71.04
61292;BME280;47165;42.664;23.368;2023-06-14T05:51:31;94801.81;;;20.88;71.48
61292;BME280;47165;42.664;23.368;2023-06-14T05:53:57;94801.88;;;20.97;70.92
61292;BME280;47165;42.664;23.368;2023-06-14T05:56:22;94808.34;;;20.94;70.97
61292;BME280;47165;42.664;23.368;2023-06-14T05:58:48;94807.38;;;21.03;70.29
61292;BME280;47165;42.664;23.368;2023-06-14T06:01:14;94815.41;;;21.12;69.97
61292;BME280;47165;42.664;23.368;2023-06-14T06:03:39;94813.94;;;21.17;70.17
61292;BME280;47165;42.664;23.368;2023-06-14T06:06:05;94807.19;;;21.23;70.01
61292;BME280;47165;42.664;23.368;2023-06-14T06:08:30;94814.88;;;21.34;70.32
61292;BME280;47165;42.664;23.368;2023-06-14T06:10:56;94816.75;;;21.42;69.91
61292;BME280;47165;42.664;23.368;2023-06-14T06:13:22;94813.78;;;21.45;69.15
61292;BME280;47165;42.664;23.368;2023-06-14T06:15:47;94817.00;;;21.57;68.10
61292;BME280;47165;42.664;23.368;2023-06-14T06:18:13;94816.34;;;21.63;68.38
61292;BME280;47165;42.664;23.368;2023-06-14T06:20:38;94815.72;;;21.69;66.94
61292;BME280;47165;42.664;23.368;2023-06-14T06:23:04;94827.53;;;21.75;66.39
61292;BME280;47165;42.664;23.368;2023-06-14T06:25:29;94825.41;;;21.78;66.89
61292;BME280;47165;42.664;23.368;2023-06-14T06:27:57;94817.44;;;21.78;66.49
61292;BME280;47165;42.664;23.368;2023-06-14T06:30:23;94828.75;;;21.88;66.56
61292;BME280;47165;42.664;23.368;2023-06-14T06:32:48;94828.91;;;21.87;66.65
61292;BME280;47165;42.664;23.368;2023-06-14T06:35:14;94825.06;;;21.81;65.78
61292;BME280;47165;42.664;23.368;2023-06-14T06:37:41;94831.41;;;21.80;66.43
61292;BME280;47165;42.664;23.368;2023-06-14T06:40:07;94830.53;;;21.80;66.38
61292;BME280;47165;42.664;23.368;2023-06-14T06:42:34;94827.41;;;21.76;67.14
61292;BME280;47165;42.664;23.368;2023-06-14T06:44:59;94834.03;;;21.72;66.28
61292;BME280;47165;42.664;23.368;2023-06-14T06:47:25;94835.16;;;21.69;66.97
61292;BME280;47165;42.664;23.368;2023-06-14T06:49:50;94836.13;;;21.60;67.28
61292;BME280;47165;42.664;23.368;2023-06-14T06:52:16;94835.06;;;21.53;66.87
61292;BME280;47165;42.664;23.368;2023-06-14T06:54:41;94836.28;;;21.59;66.60
61292;BME280;47165;42.664;23.368;2023-06-14T06:57:07;94831.28;;;21.56;66.70
61292;BME280;47165;42.664;23.368;2023-06-14T06:59:33;94834.47;;;21.67;67.41
61292;BME280;47165;42.664;23.368;2023-06-14T07:01:58;94835.00;;;21.71;67.94
61292;BME280;47165;42.664;23.368;2023-06-14T07:04:24;94840.69;;;21.76;68.11
61292;BME280;47165;42.664;23.368;2023-06-14T07:06:49;94834.06;;;21.80;67.42
61292;BME280;47165;42.664;23.368;2023-06-14T07:09:15;94835.03;;;21.79;66.46
61292;BME280;47165;42.664;23.368;2023-06-14T07:11:44;94835.72;;;21.89;66.51
61292;BME280;47165;42.664;23.368;2023-06-14T07:14:10;94841.22;;;21.96;66.99
61292;BME280;47165;42.664;23.368;2023-06-14T07:16:36;94830.28;;;21.99;66.35
61292;BME280;47165;42.664;23.368;2023-06-14T07:19:02;94820.97;;;21.95;64.25
61292;BME280;47165;42.664;23.368;2023-06-14T07:21:28;94829.78;;;22.04;64.39
61292;BME280;47165;42.664;23.368;2023-06-14T07:23:54;94830.16;;;22.09;65.13
61292;BME280;47165;42.664;23.368;2023-06-14T07:26:20;94830.50;;;22.14;65.23
61292;BME280;47165;42.664;23.368;2023-06-14T07:28:46;94833.88;;;22.24;65.21
61292;BME280;47165;42.664;23.368;2023-06-14T07:31:16;94827.22;;;22.28;65.16
61292;BME280;47165;42.664;23.368;2023-06-14T07:33:42;94822.94;;;22.36;65.18
61292;BME280;47165;42.664;23.368;2023-06-14T07:36:08;94826.75;;;22.41;65.84
61292;BME280;47165;42.664;23.368;2023-06-14T07:38:33;94816.25;;;22.23;64.16
61292;BME280;47165;42.664;23.368;2023-06-14T07:40:59;94828.31;;;22.01;64.52
61292;BME280;47165;42.664;23.368;2023-06-14T07:43:25;94824.56;;;22.28;63.21
61292;BME280;47165;42.664;23.368;2023-06-14T07:45:51;94814.75;;;22.45;63.26
61292;BME280;47165;42.664;23.368;2023-06-14T07:48:16;94814.97;;;22.52;61.79
61292;BME280;47165;42.664;23.368;2023-06-14T07:50:41;94820.44;;;22.67;61.90
61292;BME280;47165;42.664;23.368;2023-06-14T07:53:07;94825.28;;;22.80;62.52
61292;BME280;47165;42.664;23.368;2023-06-14T07:55:33;94832.59;;;22.78;61.93
61292;BME280;47165;42.664;23.368;2023-06-14T07:58:04;94835.41;;;22.93;60.76
61292;BME280;47165;42.664;23.368;2023-06-14T08:00:30;94837.91;;;22.86;61.12
61292;BME280;47165;42.664;23.368;2023-06-14T08:02:55;94829.25;;;23.17;61.78
61292;BME280;47165;42.664;23.368;2023-06-14T08:05:24;94835.88;;;23.37;61.11
61292;BME280;47165;42.664;23.368;2023-06-14T08:07:51;94837.19;;;23.49;61.03
61292;BME280;47165;42.664;23.368;2023-06-14T08:10:17;94846.84;;;23.50;59.31
61292;BME280;47165;42.664;23.368;2023-06-14T08:12:42;94846.50;;;23.54;59.00
61292;BME280;47165;42.664;23.368;2023-06-14T08:15:08;94854.16;;;23.57;58.88
61292;BME280;47165;42.664;23.368;2023-06-14T08:17:34;94854.34;;;23.55;59.37
61292;BME280;47165;42.664;23.368;2023-06-14T08:19:59;94851.88;;;23.37;59.20
61292;BME280;47165;42.664;23.368;2023-06-14T08:22:25;94851.97;;;23.60;60.25
61292;BME280;47165;42.664;23.368;2023-06-14T08:24:53;94848.59;;;23.75;60.71
61292;BME280;47165;42.664;23.368;2023-06-14T08:27:19;94844.38;;;23.97;59.60
61292;BME280;47165;42.664;23.368;2023-06-14T08:29:45;94851.16;;;24.07;57.71
61292;BME280;47165;42.664;23.368;2023-06-14T08:32:10;94850.38;;;23.99;56.63
61292;BME280;47165;42.664;23.368;2023-06-14T08:34:36;94849.25;;;24.24;56.49
61292;BME280;47165;42.664;23.368;2023-06-14T08:37:01;94851.28;;;24.45;56.92
61292;BME280;47165;42.664;23.368;2023-06-14T08:39:27;94852.53;;;24.66;56.90
61292;BME280;47165;42.664;23.368;2023-06-14T08:41:53;94850.66;;;24.89;58.15
61292;BME280;47165;42.664;23.368;2023-06-14T08:44:19;94848.22;;;25.03;56.51
61292;BME280;47165;42.664;23.368;2023-06-14T08:46:45;94839.50;;;25.09;54.32
61292;BME280;47165;42.664;23.368;2023-06-14T08:49:12;94840.19;;;25.26;54.53
61292;BME280;47165;42.664;23.368;2023-06-14T08:51:39;94830.25;;;25.35;55.23
61292;BME280;47165;42.664;23.368;2023-06-14T08:54:06;94834.22;;;25.39;53.82
61292;BME280;47165;42.664;23.368;2023-06-14T08:56:32;94822.44;;;25.48;53.18
61292;BME280;47165;42.664;23.368;2023-06-14T08:59:00;94831.09;;;25.35;52.44
61292;BME280;47165;42.664;23.368;2023-06-14T09:01:36;94838.22;;;25.58;52.35
61292;BME280;47165;42.664;23.368;2023-06-14T09:04:02;94840.78;;;25.66;54.16
61292;BME280;47165;42.664;23.368;2023-06-14T09:06:30;94837.66;;;25.62;52.70
61292;BME280;47165;42.664;23.368;2023-06-14T09:08:57;94833.94;;;25.63;53.11
61292;BME280;47165;42.664;23.368;2023-06-14T09:11:23;94830.63;;;25.61;51.75
61292;BME280;47165;42.664;23.368;2023-06-14T09:13:49;94827.59;;;25.49;52.19
61292;BME280;47165;42.664;23.368;2023-06-14T09:16:15;94826.41;;;25.52;52.34
61292;BME280;47165;42.664;23.368;2023-06-14T09:18:45;94822.34;;;25.56;52.46
61292;BME280;47165;42.664;23.368;2023-06-14T09:21:13;94826.94;;;25.62;52.44
61292;BME280;47165;42.664;23.368;2023-06-14T09:23:39;94825.38;;;25.68;53.34
61292;BME280;47165;42.664;23.368;2023-06-14T09:26:12;94829.91;;;25.82;53.63
61292;BME280;47165;42.664;23.368;2023-06-14T09:28:48;94830.28;;;25.94;52.78
61292;BME280;47165;42.664;23.368;2023-06-14T09:31:15;94823.91;;;25.95;51.54
61292;BME280;47165;42.664;23.368;2023-06-14T09:33:42;94824.56;;;25.97;51.15
61292;BME280;47165;42.664;23.368;2023-06-14T09:36:15;94821.59;;;25.92;51.98
61292;BME280;47165;42.664;23.368;2023-06-14T09:38:42;94820.41;;;25.95;52.69
61292;BME280;47165;42.664;23.368;2023-06-14T09:41:07;94819.13;;;25.91;51.84
61292;BME280;47165;42.664;23.368;2023-06-14T09:43:33;94820.78;;;25.92;51.99
61292;BME280;47165;42.664;23.368;2023-06-14T09:46:00;94810.34;;;25.52;49.63
61292;BME280;47165;42.664;23.368;2023-06-14T09:48:26;94813.41;;;25.64;52.02
61292;BME280;47165;42.664;23.368;2023-06-14T09:50:52;94804.53;;;25.78;53.31
61292;BME280;47165;42.664;23.368;2023-06-14T09:53:21;94813.41;;;25.94;51.66
61292;BME280;47165;42.664;23.368;2023-06-14T09:55:52;94812.25;;;26.18;51.25
61292;BME280;47165;42.664;23.368;2023-06-14T09:58:20;94811.84;;;26.36;50.98
61292;BME280;47165;42.664;23.368;2023-06-14T10:00:47;94799.66;;;26.55;49.76
61292;BME280;47165;42.664;23.368;2023-06-14T10:03:14;94798.34;;;26.65;49.59
61292;BME280;47165;42.664;23.368;2023-06-14T10:05:43;94800.13;;;26.80;49.30
61292;BME280;47165;42.664;23.368;2023-06-14T10:08:10;94793.41;;;26.90;49.74
61292;BME280;47165;42.664;23.368;2023-06-14T10:10:39;94785.69;;;27.02;51.71
61292;BME280;47165;42.664;23.368;2023-06-14T10:13:06;94791.72;;;27.11;48.70
61292;BME280;47165;42.664;23.368;2023-06-14T10:15:42;94787.22;;;27.12;48.30
61292;BME280;47165;42.664;23.368;2023-06-14T10:18:16;94781.63;;;27.13;47.11
61292;BME280;47165;42.664;23.368;2023-06-14T10:23:41;94770.22;;;27.26;47.03
61292;BME280;47165;42.664;23.368;2023-06-14T10:26:08;94763.81;;;27.27;46.88
61292;BME280;47165;42.664;23.368;2023-06-14T10:28:37;94769.72;;;27.16;46.76
61292;BME280;47165;42.664;23.368;2023-06-14T10:33:29;94765.91;;;27.66;46.92
61292;BME280;47165;42.664;23.368;2023-06-14T10:36:31;94763.84;;;27.68;46.19
61292;BME280;47165;42.664;23.368;2023-06-14T10:39:09;94770.28;;;27.74;47.73
61292;BME280;47165;42.664;23.368;2023-06-14T10:41:38;94759.06;;;27.99;47.76
61292;BME280;47165;42.664;23.368;2023-06-14T10:46:59;94756.69;;;28.31;43.63
61292;BME280;47165;42.664;23.368;2023-06-14T10:49:44;94753.19;;;28.37;43.83
61292;BME280;47165;42.664;23.368;2023-06-14T10:52:14;94750.94;;;28.47;43.23
61292;BME280;47165;42.664;23.368;2023-06-14T10:57:24;94755.38;;;28.20;44.91
61292;BME280;47165;42.664;23.368;2023-06-14T10:59:50;94739.75;;;28.37;44.81
61292;BME280;47165;42.664;23.368;2023-06-14T11:04:48;94739.31;;;28.26;44.56
61292;BME280;47165;42.664;23.368;2023-06-14T11:10:40;94732.31;;;28.39;43.84
61292;BME280;47165;42.664;23.368;2023-06-14T11:13:07;94734.38;;;28.43;44.10
61292;BME280;47165;42.664;23.368;2023-06-14T11:15:35;94730.72;;;28.51;44.38
61292;BME280;47165;42.664;23.368;2023-06-14T11:18:05;94727.59;;;28.54;44.28
61292;BME280;47165;42.664;23.368;2023-06-14T11:20:32;94735.47;;;28.76;44.72
61292;BME280;47165;42.664;23.368;2023-06-14T11:22:58;94729.25;;;28.68;42.51
61292;BME280;47165;42.664;23.368;2023-06-14T11:25:24;94725.75;;;28.75;41.27
61292;BME280;47165;42.664;23.368;2023-06-14T11:27:50;94721.81;;;28.71;41.70
61292;BME280;47165;42.664;23.368;2023-06-14T11:30:16;94715.41;;;28.65;42.33
61292;BME280;47165;42.664;23.368;2023-06-14T11:32:42;94711.72;;;28.59;43.76
61292;BME280;47165;42.664;23.368;2023-06-14T11:35:08;94718.28;;;28.43;44.07
61292;BME280;47165;42.664;23.368;2023-06-14T11:37:35;94715.22;;;28.53;43.88
61292;BME280;47165;42.664;23.368;2023-06-14T11:40:03;94715.00;;;28.61;43.84
61292;BME280;47165;42.664;23.368;2023-06-14T11:42:33;94719.13;;;28.71;45.03
61292;BME280;47165;42.664;23.368;2023-06-14T11:45:00;94715.00;;;28.88;45.34
61292;BME280;47165;42.664;23.368;2023-06-14T11:47:31;94709.19;;;28.91;43.84
61292;BME280;47165;42.664;23.368;2023-06-14T11:49:58;94700.94;;;28.93;43.21
61292;BME280;47165;42.664;23.368;2023-06-14T11:52:24;94704.44;;;28.93;42.00
61292;BME280;47165;42.664;23.368;2023-06-14T11:54:49;94700.34;;;28.84;41.83
61292;BME280;47165;42.664;23.368;2023-06-14T11:57:17;94695.56;;;28.79;43.20
61292;BME280;47165;42.664;23.368;2023-06-14T11:59:44;94684.19;;;28.77;41.86
61292;BME280;47165;42.664;23.368;2023-06-14T12:02:09;94676.50;;;29.07;42.96
61292;BME280;47165;42.664;23.368;2023-06-14T12:04:41;94680.34;;;29.52;40.98
61292;BME280;47165;42.664;23.368;2023-06-14T12:07:10;94671.78;;;30.13;40.27
61292;BME280;47165;42.664;23.368;2023-06-14T12:10:26;94670.72;;;30.53;38.82
61292;BME280;47165;42.664;23.368;2023-06-14T12:12:26;94662.78;;;30.83;38.36
61292;BME280;47165;42.664;23.368;2023-06-14T12:14:53;94666.69;;;31.12;39.40
61292;BME280;47165;42.664;23.368;2023-06-14T12:17:19;94657.06;;;30.73;37.76
61292;BME280;47165;42.664;23.368;2023-06-14T12:19:49;94666.06;;;30.92;38.47
61292;BME280;47165;42.664;23.368;2023-06-14T12:22:15;94668.00;;;30.78;39.46
61292;BME280;47165;42.664;23.368;2023-06-14T12:24:44;94659.09;;;30.77;39.28
61292;BME280;47165;42.664;23.368;2023-06-14T12:27:10;94664.81;;;30.37;38.16
61292;BME280;47165;42.664;23.368;2023-06-14T12:29:41;94665.63;;;30.06;38.79
61292;BME280;47165;42.664;23.368;2023-06-14T12:32:09;94664.69;;;29.87;40.72
61292;BME280;47165;42.664;23.368;2023-06-14T12:34:35;94656.94;;;29.59;39.42
61292;BME280;47165;42.664;23.368;2023-06-14T12:37:01;94657.91;;;29.19;40.46
61292;BME280;47165;42.664;23.368;2023-06-14T12:39:26;94655.03;;;28.94;39.93
61292;BME280;47165;42.664;23.368;2023-06-14T12:41:51;94645.53;;;28.98;40.21
61292;BME280;47165;42.664;23.368;2023-06-14T12:44:17;94648.63;;;28.95;41.91
61292;BME280;47165;42.664;23.368;2023-06-14T12:46:42;94645.94;;;28.95;42.10
61292;BME280;47165;42.664;23.368;2023-06-14T12:49:11;94643.47;;;28.87;42.85
61292;BME280;47165;42.664;23.368;2023-06-14T12:51:38;94638.09;;;28.87;43.49
61292;BME280;47165;42.664;23.368;2023-06-14T12:54:04;94643.47;;;28.80;43.87
61292;BME280;47165;42.664;23.368;2023-06-14T12:56:29;94637.31;;;28.60;42.18
61292;BME280;47165;42.664;23.368;2023-06-14T12:58:55;94641.44;;;28.62;43.26
61292;BME280;47165;42.664;23.368;2023-06-14T13:01:21;94632.75;;;28.60;44.18
61292;BME280;47165;42.664;23.368;2023-06-14T13:03:46;94639.38;;;28.58;44.65
61292;BME280;47165;42.664;23.368;2023-06-14T13:06:12;94641.41;;;28.49;41.82
61292;BME280;47165;42.664;23.368;2023-06-14T13:08:38;94634.81;;;28.25;41.32
61292;BME280;47165;42.664;23.368;2023-06-14T13:11:03;94639.56;;;28.16;45.60